sensor_id;sensor_type;location;lat;lon;timestamp;P1;durP1;ratioP1;P2;durP2;ratioP2
75937;SDS011;64615;32.062;34.834;2023-07-28T00:00:42;7.18;;;2.83;;
75937;SDS011;64615;32.062;34.834;2023-07-28T00:03:08;5.28;;;2.90;;
75937;SDS011;64615;32.062;34.834;2023-07-28T00:05:33;7.18;;;2.72;;
75937;SDS011;64615;32.062;34.834;2023-07-28T00:08:00;5.60;;;2.78;;
75937;SDS011;64615;32.062;34.834;2023-07-28T00:10:26;5.32;;;2.75;;
75937;SDS011;64615;32.062;34.834;2023-07-28T00:12:52;6.15;;;3.20;;
75937;SDS011;64615;32.062;34.834;2023-07-28T00:15:17;5.80;;;3.00;;
75937;SDS011;64615;32.062;34.834;2023-07-28T00:17:43;5.38;;;2.90;;
75937;SDS011;64615;32.062;34.834;2023-07-28T00:20:09;5.95;;;3.00;;
75937;SDS011;64615;32.062;34.834;2023-07-28T00:22:36;6.07;;;2.95;;
75937;SDS011;64615;32.062;34.834;2023-07-28T00:25:01;6.05;;;2.80;;
75937;SDS011;64615;32.062;34.834;2023-07-28T00:27:27;6.30;;;2.80;;
75937;SDS011;64615;32.062;34.834;2023-07-28T00:29:53;8.80;;;3.15;;
75937;SDS011;64615;32.062;34.834;2023-07-28T00:32:19;7.07;;;3.03;;
75937;SDS011;64615;32.062;34.834;2023-07-28T00:34:44;7.55;;;3.10;;
75937;SDS011;64615;32.062;34.834;2023-07-28T00:37:11;7.07;;;3.10;;
75937;SDS011;64615;32.062;34.834;2023-07-28T00:39:37;7.10;;;2.85;;
75937;SDS011;64615;32.062;34.834;2023-07-28T00:42:03;6.70;;;3.00;;
75937;SDS011;64615;32.062;34.834;2023-07-28T00:44:28;6.35;;;3.13;;
75937;SDS011;64615;32.062;34.834;2023-07-28T00:46:54;6.53;;;3.20;;
75937;SDS011;64615;32.062;34.834;2023-07-28T00:49:20;8.93;;;3.40;;
75937;SDS011;64615;32.062;34.834;2023-07-28T00:51:46;6.78;;;3.20;;
75937;SDS011;64615;32.062;34.834;2023-07-28T00:54:12;7.93;;;2.78;;
75937;SDS011;64615;32.062;34.834;2023-07-28T00:56:38;8.18;;;3.42;;
75937;SDS011;64615;32.062;34.834;2023-07-28T00:59:04;7.18;;;3.20;;
75937;SDS011;64615;32.062;34.834;2023-07-28T01:01:29;5.53;;;2.67;;
75937;SDS011;64615;32.062;34.834;2023-07-28T01:03:55;6.90;;;3.05;;
75937;SDS011;64615;32.062;34.834;2023-07-28T01:09:04;7.82;;;3.30;;
75937;SDS011;64615;32.062;34.834;2023-07-28T01:11:34;5.65;;;3.13;;
75937;SDS011;64615;32.062;34.834;2023-07-28T01:14:00;6.80;;;3.70;;
75937;SDS011;64615;32.062;34.834;2023-07-28T01:16:26;6.28;;;3.30;;
75937;SDS011;64615;32.062;34.834;2023-07-28T01:18:51;7.75;;;3.28;;
75937;SDS011;64615;32.062;34.834;2023-07-28T01:21:20;7.30;;;3.65;;
75937;SDS011;64615;32.062;34.834;2023-07-28T01:26:36;8.35;;;3.65;;
75937;SDS011;64615;32.062;34.834;2023-07-28T01:29:03;5.30;;;3.08;;
75937;SDS011;64615;32.062;34.834;2023-07-28T01:31:31;6.78;;;3.22;;
75937;SDS011;64615;32.062;34.834;2023-07-28T01:33:57;7.15;;;3.45;;
75937;SDS011;64615;32.062;34.834;2023-07-28T01:36:23;7.32;;;3.60;;
75937;SDS011;64615;32.062;34.834;2023-07-28T01:38:48;7.55;;;3.38;;
75937;SDS011;64615;32.062;34.834;2023-07-28T01:41:14;6.82;;;3.58;;
75937;SDS011;64615;32.062;34.834;2023-07-28T01:43:40;7.65;;;3.30;;
75937;SDS011;64615;32.062;34.834;2023-07-28T01:46:07;8.75;;;4.63;;
75937;SDS011;64615;32.062;34.834;2023-07-28T01:48:33;7.82;;;3.90;;
75937;SDS011;64615;32.062;34.834;2023-07-28T01:50:58;9.35;;;3.50;;
75937;SDS011;64615;32.062;34.834;2023-07-28T01:53:24;8.90;;;3.70;;
75937;SDS011;64615;32.062;34.834;2023-07-28T01:55:49;7.78;;;3.63;;
75937;SDS011;64615;32.062;34.834;2023-07-28T01:58:15;7.15;;;3.65;;
75937;SDS011;64615;32.062;34.834;2023-07-28T02:00:41;7.60;;;3.60;;
75937;SDS011;64615;32.062;34.834;2023-07-28T02:03:06;9.63;;;4.10;;
75937;SDS011;64615;32.062;34.834;2023-07-28T02:05:32;9.38;;;3.97;;
75937;SDS011;64615;32.062;34.834;2023-07-28T02:07:58;7.90;;;3.40;;
75937;SDS011;64615;32.062;34.834;2023-07-28T02:10:25;9.55;;;4.05;;
75937;SDS011;64615;32.062;34.834;2023-07-28T02:12:51;9.07;;;3.63;;
75937;SDS011;64615;32.062;34.834;2023-07-28T02:15:17;9.88;;;4.28;;
75937;SDS011;64615;32.062;34.834;2023-07-28T02:17:43;7.75;;;4.03;;
75937;SDS011;64615;32.062;34.834;2023-07-28T02:20:09;8.57;;;3.97;;
75937;SDS011;64615;32.062;34.834;2023-07-28T02:22:37;8.65;;;4.03;;
75937;SDS011;64615;32.062;34.834;2023-07-28T02:25:04;7.60;;;3.92;;
75937;SDS011;64615;32.062;34.834;2023-07-28T02:27:30;7.32;;;3.97;;
75937;SDS011;64615;32.062;34.834;2023-07-28T02:29:55;8.18;;;4.00;;
75937;SDS011;64615;32.062;34.834;2023-07-28T02:32:21;8.13;;;3.90;;
75937;SDS011;64615;32.062;34.834;2023-07-28T02:34:47;9.48;;;4.07;;
75937;SDS011;64615;32.062;34.834;2023-07-28T02:37:14;8.88;;;4.30;;
75937;SDS011;64615;32.062;34.834;2023-07-28T02:39:40;7.70;;;3.78;;
75937;SDS011;64615;32.062;34.834;2023-07-28T02:42:06;9.82;;;4.30;;
75937;SDS011;64615;32.062;34.834;2023-07-28T02:44:32;10.95;;;4.38;;
75937;SDS011;64615;32.062;34.834;2023-07-28T02:46:57;10.52;;;4.38;;
75937;SDS011;64615;32.062;34.834;2023-07-28T02:49:23;11.60;;;4.40;;
75937;SDS011;64615;32.062;34.834;2023-07-28T02:51:48;11.25;;;4.63;;
75937;SDS011;64615;32.062;34.834;2023-07-28T02:54:14;11.70;;;4.82;;
75937;SDS011;64615;32.062;34.834;2023-07-28T02:56:39;11.75;;;4.43;;
75937;SDS011;64615;32.062;34.834;2023-07-28T02:59:05;12.45;;;4.53;;
75937;SDS011;64615;32.062;34.834;2023-07-28T03:01:31;14.50;;;4.55;;
75937;SDS011;64615;32.062;34.834;2023-07-28T03:04:03;8.88;;;4.65;;
75937;SDS011;64615;32.062;34.834;2023-07-28T03:06:29;10.35;;;4.35;;
75937;SDS011;64615;32.062;34.834;2023-07-28T03:08:54;8.93;;;4.30;;
75937;SDS011;64615;32.062;34.834;2023-07-28T03:11:20;11.38;;;4.78;;
75937;SDS011;64615;32.062;34.834;2023-07-28T03:13:46;10.07;;;4.65;;
75937;SDS011;64615;32.062;34.834;2023-07-28T03:16:11;9.27;;;4.53;;
75937;SDS011;64615;32.062;34.834;2023-07-28T03:18:37;11.70;;;4.88;;
75937;SDS011;64615;32.062;34.834;2023-07-28T03:21:03;11.63;;;4.65;;
75937;SDS011;64615;32.062;34.834;2023-07-28T03:23:29;7.43;;;3.90;;
75937;SDS011;64615;32.062;34.834;2023-07-28T03:25:54;13.05;;;4.47;;
75937;SDS011;64615;32.062;34.834;2023-07-28T03:28:20;10.85;;;4.70;;
75937;SDS011;64615;32.062;34.834;2023-07-28T03:30:46;12.70;;;4.70;;
75937;SDS011;64615;32.062;34.834;2023-07-28T03:33:11;10.55;;;4.53;;
75937;SDS011;64615;32.062;34.834;2023-07-28T03:35:37;8.52;;;4.40;;
75937;SDS011;64615;32.062;34.834;2023-07-28T03:38:02;10.88;;;5.30;;
75937;SDS011;64615;32.062;34.834;2023-07-28T03:40:28;12.98;;;5.25;;
75937;SDS011;64615;32.062;34.834;2023-07-28T03:42:54;9.48;;;4.30;;
75937;SDS011;64615;32.062;34.834;2023-07-28T03:45:20;8.32;;;3.97;;
75937;SDS011;64615;32.062;34.834;2023-07-28T03:47:45;12.55;;;4.50;;
75937;SDS011;64615;32.062;34.834;2023-07-28T03:50:11;10.27;;;4.43;;
75937;SDS011;64615;32.062;34.834;2023-07-28T03:52:37;10.52;;;5.30;;
75937;SDS011;64615;32.062;34.834;2023-07-28T03:55:03;10.02;;;4.50;;
75937;SDS011;64615;32.062;34.834;2023-07-28T03:57:29;11.93;;;4.40;;
75937;SDS011;64615;32.062;34.834;2023-07-28T03:59:54;8.75;;;4.50;;
75937;SDS011;64615;32.062;34.834;2023-07-28T04:02:20;13.23;;;4.28;;
75937;SDS011;64615;32.062;34.834;2023-07-28T04:04:46;8.48;;;4.35;;
75937;SDS011;64615;32.062;34.834;2023-07-28T04:07:11;9.77;;;4.45;;
75937;SDS011;64615;32.062;34.834;2023-07-28T04:09:37;11.75;;;4.75;;
75937;SDS011;64615;32.062;34.834;2023-07-28T04:12:03;11.13;;;4.57;;
75937;SDS011;64615;32.062;34.834;2023-07-28T04:14:29;9.25;;;4.47;;
75937;SDS011;64615;32.062;34.834;2023-07-28T04:16:54;8.80;;;4.38;;
75937;SDS011;64615;32.062;34.834;2023-07-28T04:19:20;12.85;;;5.00;;
75937;SDS011;64615;32.062;34.834;2023-07-28T04:21:46;8.63;;;4.35;;
75937;SDS011;64615;32.062;34.834;2023-07-28T04:24:11;11.38;;;4.47;;
75937;SDS011;64615;32.062;34.834;2023-07-28T04:26:37;9.65;;;4.57;;
75937;SDS011;64615;32.062;34.834;2023-07-28T04:29:03;13.38;;;5.13;;
75937;SDS011;64615;32.062;34.834;2023-07-28T04:31:29;9.30;;;4.68;;
75937;SDS011;64615;32.062;34.834;2023-07-28T04:33:54;10.27;;;4.95;;
75937;SDS011;64615;32.062;34.834;2023-07-28T04:36:20;9.30;;;4.70;;
75937;SDS011;64615;32.062;34.834;2023-07-28T04:38:45;12.15;;;5.00;;
75937;SDS011;64615;32.062;34.834;2023-07-28T04:41:11;10.05;;;4.68;;
75937;SDS011;64615;32.062;34.834;2023-07-28T04:43:37;11.23;;;4.72;;
75937;SDS011;64615;32.062;34.834;2023-07-28T04:46:02;12.50;;;5.25;;
75937;SDS011;64615;32.062;34.834;2023-07-28T04:48:28;12.90;;;5.40;;
75937;SDS011;64615;32.062;34.834;2023-07-28T04:50:54;12.40;;;5.38;;
75937;SDS011;64615;32.062;34.834;2023-07-28T04:53:20;12.85;;;5.45;;
75937;SDS011;64615;32.062;34.834;2023-07-28T04:55:45;10.63;;;4.93;;
75937;SDS011;64615;32.062;34.834;2023-07-28T04:58:11;9.13;;;4.72;;
75937;SDS011;64615;32.062;34.834;2023-07-28T05:00:36;11.85;;;5.22;;
75937;SDS011;64615;32.062;34.834;2023-07-28T05:03:02;12.27;;;5.15;;
75937;SDS011;64615;32.062;34.834;2023-07-28T05:05:30;9.52;;;4.78;;
75937;SDS011;64615;32.062;34.834;2023-07-28T05:07:56;11.93;;;4.60;;
75937;SDS011;64615;32.062;34.834;2023-07-28T05:10:22;11.88;;;4.93;;
75937;SDS011;64615;32.062;34.834;2023-07-28T05:12:47;17.38;;;5.50;;
75937;SDS011;64615;32.062;34.834;2023-07-28T05:15:14;10.88;;;5.10;;
75937;SDS011;64615;32.062;34.834;2023-07-28T05:17:40;13.38;;;5.10;;
75937;SDS011;64615;32.062;34.834;2023-07-28T05:20:06;10.95;;;5.70;;
75937;SDS011;64615;32.062;34.834;2023-07-28T05:22:32;10.95;;;5.28;;
75937;SDS011;64615;32.062;34.834;2023-07-28T05:24:58;9.80;;;4.70;;
75937;SDS011;64615;32.062;34.834;2023-07-28T05:27:23;10.95;;;5.47;;
75937;SDS011;64615;32.062;34.834;2023-07-28T05:29:49;11.93;;;5.70;;
75937;SDS011;64615;32.062;34.834;2023-07-28T05:32:15;9.18;;;4.53;;
75937;SDS011;64615;32.062;34.834;2023-07-28T05:34:44;12.45;;;5.63;;
75937;SDS011;64615;32.062;34.834;2023-07-28T05:37:09;10.40;;;4.88;;
75937;SDS011;64615;32.062;34.834;2023-07-28T05:39:35;9.80;;;4.95;;
75937;SDS011;64615;32.062;34.834;2023-07-28T05:42:01;10.95;;;4.97;;
75937;SDS011;64615;32.062;34.834;2023-07-28T05:44:27;9.27;;;4.72;;
75937;SDS011;64615;32.062;34.834;2023-07-28T05:46:53;9.15;;;4.70;;
75937;SDS011;64615;32.062;34.834;2023-07-28T05:49:19;8.98;;;4.47;;
75937;SDS011;64615;32.062;34.834;2023-07-28T05:51:44;8.68;;;4.75;;
75937;SDS011;64615;32.062;34.834;2023-07-28T05:54:11;9.57;;;5.05;;
75937;SDS011;64615;32.062;34.834;2023-07-28T05:56:39;10.40;;;4.65;;
75937;SDS011;64615;32.062;34.834;2023-07-28T05:59:05;10.88;;;4.97;;
75937;SDS011;64615;32.062;34.834;2023-07-28T06:01:31;10.52;;;4.97;;
75937;SDS011;64615;32.062;34.834;2023-07-28T06:03:58;9.07;;;4.97;;
75937;SDS011;64615;32.062;34.834;2023-07-28T06:06:24;10.15;;;5.70;;
75937;SDS011;64615;32.062;34.834;2023-07-28T06:08:51;10.60;;;4.95;;
75937;SDS011;64615;32.062;34.834;2023-07-28T06:11:17;10.27;;;5.25;;
75937;SDS011;64615;32.062;34.834;2023-07-28T06:13:43;10.02;;;5.00;;
75937;SDS011;64615;32.062;34.834;2023-07-28T06:16:11;9.73;;;4.63;;
75937;SDS011;64615;32.062;34.834;2023-07-28T06:18:37;8.20;;;4.78;;
75937;SDS011;64615;32.062;34.834;2023-07-28T06:21:02;10.50;;;4.90;;
75937;SDS011;64615;32.062;34.834;2023-07-28T06:23:28;11.45;;;4.68;;
75937;SDS011;64615;32.062;34.834;2023-07-28T06:25:54;8.60;;;5.50;;
75937;SDS011;64615;32.062;34.834;2023-07-28T06:28:20;9.18;;;4.70;;
75937;SDS011;64615;32.062;34.834;2023-07-28T06:30:45;8.30;;;4.40;;
75937;SDS011;64615;32.062;34.834;2023-07-28T06:33:11;11.95;;;5.05;;
75937;SDS011;64615;32.062;34.834;2023-07-28T06:35:37;9.48;;;4.28;;
75937;SDS011;64615;32.062;34.834;2023-07-28T06:38:04;10.00;;;4.68;;
75937;SDS011;64615;32.062;34.834;2023-07-28T06:40:30;9.88;;;4.43;;
75937;SDS011;64615;32.062;34.834;2023-07-28T06:42:55;7.68;;;4.60;;
75937;SDS011;64615;32.062;34.834;2023-07-28T06:45:21;8.32;;;4.25;;
75937;SDS011;64615;32.062;34.834;2023-07-28T06:47:47;9.35;;;4.60;;
75937;SDS011;64615;32.062;34.834;2023-07-28T06:50:13;10.13;;;4.22;;
75937;SDS011;64615;32.062;34.834;2023-07-28T06:52:39;9.23;;;4.47;;
75937;SDS011;64615;32.062;34.834;2023-07-28T06:55:05;8.55;;;4.85;;
75937;SDS011;64615;32.062;34.834;2023-07-28T06:57:30;8.60;;;4.60;;
75937;SDS011;64615;32.062;34.834;2023-07-28T06:59:56;10.85;;;4.53;;
75937;SDS011;64615;32.062;34.834;2023-07-28T07:02:22;8.02;;;4.28;;
75937;SDS011;64615;32.062;34.834;2023-07-28T07:04:48;8.95;;;4.20;;
75937;SDS011;64615;32.062;34.834;2023-07-28T07:07:14;7.85;;;4.45;;
75937;SDS011;64615;32.062;34.834;2023-07-28T07:09:39;7.03;;;4.13;;
75937;SDS011;64615;32.062;34.834;2023-07-28T07:12:07;8.20;;;4.28;;
75937;SDS011;64615;32.062;34.834;2023-07-28T07:14:33;9.60;;;4.93;;
75937;SDS011;64615;32.062;34.834;2023-07-28T07:16:59;9.55;;;4.43;;
75937;SDS011;64615;32.062;34.834;2023-07-28T07:19:25;9.18;;;4.20;;
75937;SDS011;64615;32.062;34.834;2023-07-28T07:21:51;8.52;;;4.25;;
75937;SDS011;64615;32.062;34.834;2023-07-28T07:24:16;8.63;;;4.97;;
75937;SDS011;64615;32.062;34.834;2023-07-28T07:26:42;7.78;;;4.50;;
75937;SDS011;64615;32.062;34.834;2023-07-28T07:29:08;9.25;;;4.70;;
75937;SDS011;64615;32.062;34.834;2023-07-28T07:31:34;8.32;;;4.00;;
75937;SDS011;64615;32.062;34.834;2023-07-28T07:34:00;9.85;;;4.15;;
75937;SDS011;64615;32.062;34.834;2023-07-28T07:36:26;8.68;;;3.97;;
75937;SDS011;64615;32.062;34.834;2023-07-28T07:38:52;7.88;;;3.90;;
75937;SDS011;64615;32.062;34.834;2023-07-28T07:41:18;7.30;;;3.63;;
75937;SDS011;64615;32.062;34.834;2023-07-28T07:43:49;7.78;;;4.28;;
75937;SDS011;64615;32.062;34.834;2023-07-28T07:46:17;8.18;;;4.03;;
75937;SDS011;64615;32.062;34.834;2023-07-28T07:48:46;7.72;;;3.95;;
75937;SDS011;64615;32.062;34.834;2023-07-28T07:51:13;8.38;;;3.97;;
75937;SDS011;64615;32.062;34.834;2023-07-28T07:53:39;7.60;;;3.92;;
75937;SDS011;64615;32.062;34.834;2023-07-28T07:56:05;8.68;;;4.30;;
75937;SDS011;64615;32.062;34.834;2023-07-28T07:58:31;8.27;;;4.60;;
75937;SDS011;64615;32.062;34.834;2023-07-28T08:00:58;9.55;;;3.97;;
75937;SDS011;64615;32.062;34.834;2023-07-28T08:03:24;7.28;;;3.72;;
75937;SDS011;64615;32.062;34.834;2023-07-28T08:05:52;7.43;;;3.97;;
75937;SDS011;64615;32.062;34.834;2023-07-28T08:08:18;7.53;;;3.95;;
75937;SDS011;64615;32.062;34.834;2023-07-28T08:10:48;7.05;;;3.67;;
75937;SDS011;64615;32.062;34.834;2023-07-28T08:13:14;8.57;;;3.85;;
75937;SDS011;64615;32.062;34.834;2023-07-28T08:15:40;6.80;;;3.78;;
75937;SDS011;64615;32.062;34.834;2023-07-28T08:18:08;7.65;;;3.78;;
75937;SDS011;64615;32.062;34.834;2023-07-28T08:20:33;8.48;;;4.10;;
75937;SDS011;64615;32.062;34.834;2023-07-28T08:22:59;7.97;;;4.00;;
75937;SDS011;64615;32.062;34.834;2023-07-28T08:25:24;7.85;;;4.38;;
75937;SDS011;64615;32.062;34.834;2023-07-28T08:27:50;7.68;;;4.13;;
75937;SDS011;64615;32.062;34.834;2023-07-28T08:30:16;6.82;;;3.70;;
75937;SDS011;64615;32.062;34.834;2023-07-28T08:32:42;8.63;;;4.18;;
75937;SDS011;64615;32.062;34.834;2023-07-28T08:35:08;9.23;;;3.90;;
75937;SDS011;64615;32.062;34.834;2023-07-28T08:37:34;6.40;;;3.75;;
75937;SDS011;64615;32.062;34.834;2023-07-28T08:40:00;9.75;;;4.53;;
75937;SDS011;64615;32.062;34.834;2023-07-28T08:42:28;8.32;;;3.78;;
75937;SDS011;64615;32.062;34.834;2023-07-28T08:44:54;7.65;;;3.85;;
75937;SDS011;64615;32.062;34.834;2023-07-28T08:47:20;8.75;;;3.83;;
75937;SDS011;64615;32.062;34.834;2023-07-28T08:49:46;8.07;;;4.05;;
75937;SDS011;64615;32.062;34.834;2023-07-28T08:52:14;7.55;;;3.70;;
75937;SDS011;64615;32.062;34.834;2023-07-28T08:54:41;7.85;;;3.53;;
75937;SDS011;64615;32.062;34.834;2023-07-28T08:57:08;8.05;;;3.90;;
75937;SDS011;64615;32.062;34.834;2023-07-28T08:59:34;7.72;;;4.03;;
75937;SDS011;64615;32.062;34.834;2023-07-28T09:02:01;6.72;;;3.70;;
75937;SDS011;64615;32.062;34.834;2023-07-28T09:04:27;7.18;;;3.80;;
75937;SDS011;64615;32.062;34.834;2023-07-28T09:06:53;7.43;;;3.92;;
75937;SDS011;64615;32.062;34.834;2023-07-28T09:09:20;6.80;;;3.65;;
75937;SDS011;64615;32.062;34.834;2023-07-28T09:11:53;6.05;;;3.65;;
75937;SDS011;64615;32.062;34.834;2023-07-28T09:14:20;7.00;;;4.13;;
75937;SDS011;64615;32.062;34.834;2023-07-28T09:16:48;8.82;;;3.92;;
75937;SDS011;64615;32.062;34.834;2023-07-28T09:19:14;7.22;;;3.92;;
75937;SDS011;64615;32.062;34.834;2023-07-28T09:21:42;7.95;;;3.95;;
75937;SDS011;64615;32.062;34.834;2023-07-28T09:24:10;7.25;;;3.70;;
75937;SDS011;64615;32.062;34.834;2023-07-28T09:26:40;10.00;;;4.32;;
75937;SDS011;64615;32.062;34.834;2023-07-28T09:31:49;7.78;;;3.80;;
75937;SDS011;64615;32.062;34.834;2023-07-28T09:34:25;7.18;;;3.80;;
75937;SDS011;64615;32.062;34.834;2023-07-28T09:36:55;7.15;;;3.80;;
75937;SDS011;64615;32.062;34.834;2023-07-28T09:39:21;6.80;;;3.75;;
75937;SDS011;64615;32.062;34.834;2023-07-28T09:41:47;7.55;;;3.92;;
75937;SDS011;64615;32.062;34.834;2023-07-28T09:44:14;6.63;;;3.65;;
75937;SDS011;64615;32.062;34.834;2023-07-28T09:46:55;6.97;;;3.97;;
75937;SDS011;64615;32.062;34.834;2023-07-28T09:49:31;8.07;;;3.80;;
75937;SDS011;64615;32.062;34.834;2023-07-28T09:52:05;7.80;;;3.88;;
75937;SDS011;64615;32.062;34.834;2023-07-28T09:54:39;8.02;;;3.78;;
75937;SDS011;64615;32.062;34.834;2023-07-28T09:57:17;6.68;;;3.75;;
75937;SDS011;64615;32.062;34.834;2023-07-28T09:59:45;8.68;;;3.72;;
75937;SDS011;64615;32.062;34.834;2023-07-28T10:02:13;6.75;;;3.85;;
75937;SDS011;64615;32.062;34.834;2023-07-28T10:04:39;5.82;;;3.58;;
75937;SDS011;64615;32.062;34.834;2023-07-28T10:07:05;6.60;;;3.47;;
75937;SDS011;64615;32.062;34.834;2023-07-28T10:09:32;8.65;;;4.10;;
75937;SDS011;64615;32.062;34.834;2023-07-28T10:11:59;7.47;;;3.63;;
75937;SDS011;64615;32.062;34.834;2023-07-28T10:14:26;7.18;;;3.63;;
75937;SDS011;64615;32.062;34.834;2023-07-28T10:16:58;7.95;;;4.03;;
75937;SDS011;64615;32.062;34.834;2023-07-28T10:19:25;7.25;;;3.50;;
75937;SDS011;64615;32.062;34.834;2023-07-28T10:22:00;7.22;;;3.95;;
75937;SDS011;64615;32.062;34.834;2023-07-28T10:24:52;7.63;;;4.15;;
75937;SDS011;64615;32.062;34.834;2023-07-28T10:27:34;8.00;;;3.95;;
75937;SDS011;64615;32.062;34.834;2023-07-28T10:30:02;8.45;;;3.63;;
75937;SDS011;64615;32.062;34.834;2023-07-28T10:32:39;6.47;;;3.60;;
75937;SDS011;64615;32.062;34.834;2023-07-28T10:35:06;6.10;;;3.58;;
75937;SDS011;64615;32.062;34.834;2023-07-28T10:37:39;7.20;;;3.60;;
75937;SDS011;64615;32.062;34.834;2023-07-28T10:42:56;6.63;;;3.42;;
75937;SDS011;64615;32.062;34.834;2023-07-28T10:45:24;6.43;;;3.78;;
75937;SDS011;64615;32.062;34.834;2023-07-28T10:47:52;7.70;;;3.80;;
75937;SDS011;64615;32.062;34.834;2023-07-28T10:50:21;7.38;;;3.90;;
75937;SDS011;64615;32.062;34.834;2023-07-28T10:52:47;8.02;;;3.75;;
75937;SDS011;64615;32.062;34.834;2023-07-28T10:55:22;7.82;;;3.83;;
75937;SDS011;64615;32.062;34.834;2023-07-28T10:57:49;6.78;;;3.53;;
75937;SDS011;64615;32.062;34.834;2023-07-28T11:00:17;6.88;;;3.70;;
75937;SDS011;64615;32.062;34.834;2023-07-28T11:02:45;6.97;;;3.55;;
75937;SDS011;64615;32.062;34.834;2023-07-28T11:05:19;8.45;;;3.67;;
75937;SDS011;64615;32.062;34.834;2023-07-28T11:07:51;6.88;;;4.13;;
75937;SDS011;64615;32.062;34.834;2023-07-28T11:10:19;6.65;;;3.33;;
75937;SDS011;64615;32.062;34.834;2023-07-28T11:12:46;8.38;;;3.55;;
75937;SDS011;64615;32.062;34.834;2023-07-28T11:15:14;6.38;;;3.53;;
75937;SDS011;64615;32.062;34.834;2023-07-28T11:17:46;7.93;;;4.30;;
75937;SDS011;64615;32.062;34.834;2023-07-28T11:20:16;8.10;;;3.63;;
75937;SDS011;64615;32.062;34.834;2023-07-28T11:22:58;6.80;;;3.67;;
75937;SDS011;64615;32.062;34.834;2023-07-28T11:25:26;9.98;;;4.03;;
75937;SDS011;64615;32.062;34.834;2023-07-28T11:27:53;6.05;;;3.35;;
75937;SDS011;64615;32.062;34.834;2023-07-28T11:30:21;6.13;;;3.50;;
75937;SDS011;64615;32.062;34.834;2023-07-28T11:32:49;5.97;;;3.60;;
75937;SDS011;64615;32.062;34.834;2023-07-28T11:35:16;8.63;;;4.38;;
75937;SDS011;64615;32.062;34.834;2023-07-28T11:37:44;8.18;;;3.60;;
75937;SDS011;64615;32.062;34.834;2023-07-28T11:40:11;6.53;;;3.60;;
75937;SDS011;64615;32.062;34.834;2023-07-28T11:45:07;5.95;;;3.47;;
75937;SDS011;64615;32.062;34.834;2023-07-28T11:47:35;6.32;;;3.40;;
75937;SDS011;64615;32.062;34.834;2023-07-28T11:50:00;6.65;;;3.60;;
75937;SDS011;64615;32.062;34.834;2023-07-28T11:52:32;6.65;;;3.38;;
75937;SDS011;64615;32.062;34.834;2023-07-28T11:55:00;6.05;;;3.20;;
75937;SDS011;64615;32.062;34.834;2023-07-28T11:57:27;6.05;;;3.60;;
75937;SDS011;64615;32.062;34.834;2023-07-28T11:59:56;7.03;;;3.30;;
75937;SDS011;64615;32.062;34.834;2023-07-28T12:02:26;6.40;;;3.10;;
75937;SDS011;64615;32.062;34.834;2023-07-28T12:04:55;6.45;;;3.90;;
75937;SDS011;64615;32.062;34.834;2023-07-28T12:07:32;5.95;;;3.38;;
75937;SDS011;64615;32.062;34.834;2023-07-28T12:10:03;6.30;;;3.20;;
75937;SDS011;64615;32.062;34.834;2023-07-28T12:12:38;7.10;;;3.65;;
75937;SDS011;64615;32.062;34.834;2023-07-28T12:15:27;6.05;;;3.10;;
75937;SDS011;64615;32.062;34.834;2023-07-28T12:18:09;6.85;;;3.15;;
75937;SDS011;64615;32.062;34.834;2023-07-28T12:20:54;5.88;;;3.40;;
75937;SDS011;64615;32.062;34.834;2023-07-28T12:23:20;6.78;;;3.28;;
75937;SDS011;64615;32.062;34.834;2023-07-28T12:25:47;6.93;;;3.65;;
75937;SDS011;64615;32.062;34.834;2023-07-28T12:28:15;6.95;;;3.53;;
75937;SDS011;64615;32.062;34.834;2023-07-28T12:30:41;6.78;;;3.22;;
75937;SDS011;64615;32.062;34.834;2023-07-28T12:33:08;6.18;;;3.50;;
75937;SDS011;64615;32.062;34.834;2023-07-28T12:35:34;5.75;;;3.28;;
75937;SDS011;64615;32.062;34.834;2023-07-28T12:38:03;6.05;;;3.53;;
75937;SDS011;64615;32.062;34.834;2023-07-28T12:40:30;6.47;;;3.55;;
75937;SDS011;64615;32.062;34.834;2023-07-28T12:42:57;6.40;;;3.55;;
75937;SDS011;64615;32.062;34.834;2023-07-28T12:45:24;7.47;;;3.55;;
75937;SDS011;64615;32.062;34.834;2023-07-28T12:47:54;5.80;;;3.22;;
75937;SDS011;64615;32.062;34.834;2023-07-28T12:50:21;6.70;;;3.50;;
75937;SDS011;64615;32.062;34.834;2023-07-28T12:52:48;7.07;;;3.95;;
75937;SDS011;64615;32.062;34.834;2023-07-28T12:55:17;6.25;;;3.38;;
75937;SDS011;64615;32.062;34.834;2023-07-28T12:57:43;7.05;;;3.53;;
75937;SDS011;64615;32.062;34.834;2023-07-28T13:00:09;8.75;;;3.17;;
75937;SDS011;64615;32.062;34.834;2023-07-28T13:02:41;5.80;;;3.47;;
75937;SDS011;64615;32.062;34.834;2023-07-28T13:05:08;6.65;;;3.42;;
75937;SDS011;64615;32.062;34.834;2023-07-28T13:07:38;5.72;;;3.47;;
75937;SDS011;64615;32.062;34.834;2023-07-28T13:10:06;6.18;;;3.22;;
75937;SDS011;64615;32.062;34.834;2023-07-28T13:12:35;7.30;;;3.55;;
75937;SDS011;64615;32.062;34.834;2023-07-28T13:15:01;6.38;;;3.65;;
75937;SDS011;64615;32.062;34.834;2023-07-28T13:17:26;7.03;;;3.25;;
75937;SDS011;64615;32.062;34.834;2023-07-28T13:19:52;6.47;;;3.55;;
75937;SDS011;64615;32.062;34.834;2023-07-28T13:22:18;6.65;;;3.80;;
75937;SDS011;64615;32.062;34.834;2023-07-28T13:24:44;6.75;;;3.55;;
75937;SDS011;64615;32.062;34.834;2023-07-28T13:27:09;6.05;;;3.30;;
75937;SDS011;64615;32.062;34.834;2023-07-28T13:29:35;6.32;;;3.15;;
75937;SDS011;64615;32.062;34.834;2023-07-28T13:32:01;6.65;;;3.33;;
75937;SDS011;64615;32.062;34.834;2023-07-28T13:34:27;5.53;;;3.10;;
75937;SDS011;64615;32.062;34.834;2023-07-28T13:36:53;5.63;;;3.10;;
75937;SDS011;64615;32.062;34.834;2023-07-28T13:39:20;6.05;;;3.22;;
75937;SDS011;64615;32.062;34.834;2023-07-28T13:41:46;6.20;;;3.25;;
75937;SDS011;64615;32.062;34.834;2023-07-28T13:44:11;6.93;;;3.47;;
75937;SDS011;64615;32.062;34.834;2023-07-28T13:46:37;7.30;;;3.50;;
75937;SDS011;64615;32.062;34.834;2023-07-28T13:49:03;6.25;;;3.58;;
75937;SDS011;64615;32.062;34.834;2023-07-28T13:51:28;5.85;;;3.20;;
75937;SDS011;64615;32.062;34.834;2023-07-28T13:53:54;5.47;;;3.20;;
75937;SDS011;64615;32.062;34.834;2023-07-28T13:56:20;6.07;;;2.90;;
75937;SDS011;64615;32.062;34.834;2023-07-28T13:58:45;7.07;;;3.15;;
75937;SDS011;64615;32.062;34.834;2023-07-28T14:01:11;5.85;;;2.92;;
75937;SDS011;64615;32.062;34.834;2023-07-28T14:03:37;5.78;;;3.20;;
75937;SDS011;64615;32.062;34.834;2023-07-28T14:06:03;6.75;;;3.20;;
75937;SDS011;64615;32.062;34.834;2023-07-28T14:08:28;6.03;;;3.35;;
75937;SDS011;64615;32.062;34.834;2023-07-28T14:10:54;5.97;;;3.45;;
75937;SDS011;64615;32.062;34.834;2023-07-28T14:13:20;6.38;;;3.60;;
75937;SDS011;64615;32.062;34.834;2023-07-28T14:15:46;5.60;;;3.22;;
75937;SDS011;64615;32.062;34.834;2023-07-28T14:18:12;5.43;;;3.10;;
75937;SDS011;64615;32.062;34.834;2023-07-28T14:20:38;5.82;;;3.33;;
75937;SDS011;64615;32.062;34.834;2023-07-28T14:23:08;6.47;;;3.55;;
75937;SDS011;64615;32.062;34.834;2023-07-28T14:25:46;5.45;;;2.95;;
75937;SDS011;64615;32.062;34.834;2023-07-28T14:28:11;5.80;;;3.22;;
75937;SDS011;64615;32.062;34.834;2023-07-28T14:30:37;7.05;;;3.20;;
75937;SDS011;64615;32.062;34.834;2023-07-28T14:33:02;6.72;;;3.45;;
75937;SDS011;64615;32.062;34.834;2023-07-28T14:35:28;5.38;;;3.20;;
75937;SDS011;64615;32.062;34.834;2023-07-28T14:37:54;6.10;;;3.47;;
75937;SDS011;64615;32.062;34.834;2023-07-28T14:40:19;5.78;;;3.25;;
75937;SDS011;64615;32.062;34.834;2023-07-28T14:42:45;6.05;;;3.47;;